Time;durP1;ratioP1;P1;durP2;ratioP2;P2;SDS_P1;SDS_P2;PMS_P1;PMS_P2;Temp;Humidity;BMP_temperature;BMP_pressure;BME280_temperature;BME280_humidity;BME280_pressure;Samples;Min_cycle;Max_cycle;Signal;HPM_P1;HPM_P2
2022/07/08 00:00:22;;;;;;;3.80;3.35;;;11.80;99.90;;;;;;4971488;28;20062;-75
2022/07/08 00:02:48;;;;;;;4.22;3.75;;;11.80;99.90;;;;;;4969617;28;20399;-75
2022/07/08 00:05:13;;;;;;;6.38;3.78;;;11.80;99.90;;;;;;4970901;28;20097;-75
2022/07/08 00:07:39;;;;;;;6.60;3.97;;;11.90;99.90;;;;;;4971082;28;20026;-75
2022/07/08 02:09:12;;;;;;;6.65;3.53;;;10.50;99.90;;;;;;5729387;23;20393;-74
2022/07/08 02:14:22;;;;;;;3.60;3.30;;;10.50;99.90;;;;;;4972388;28;20603;-74
2022/07/08 02:16:47;;;;;;;8.15;3.55;;;10.50;99.90;;;;;;4971929;28;20106;-75
2022/07/08 02:19:13;;;;;;;4.60;3.47;;;10.50;99.90;;;;;;4971916;28;20098;-75
2022/07/08 02:21:39;;;;;;;3.25;2.88;;;10.50;99.90;;;;;;4971822;28;20054;-74
2022/07/08 02:24:05;;;;;;;3.80;3.40;;;10.40;99.90;;;;;;4971655;28;20019;-75
2022/07/08 02:26:30;;;;;;;18.80;4.25;;;10.40;99.90;;;;;;4972217;28;20026;-75
2022/07/08 02:28:56;;;;;;;4.47;3.28;;;10.40;99.90;;;;;;4971987;28;20034;-75
2022/07/08 02:31:22;;;;;;;6.50;3.05;;;10.40;99.90;;;;;;4972038;28;20034;-74
2022/07/08 02:33:48;;;;;;;4.88;4.00;;;10.40;99.90;;;;;;4972184;28;20027;-75
2022/07/08 02:36:13;;;;;;;8.13;3.70;;;10.40;99.90;;;;;;4971515;28;20026;-75
2022/07/08 02:38:39;;;;;;;3.90;3.17;;;10.40;99.90;;;;;;4968820;28;20561;-74
2022/07/08 02:41:05;;;;;;;6.68;3.42;;;10.40;99.90;;;;;;4971083;28;20102;-74
2022/07/08 02:43:31;;;;;;;5.25;3.55;;;10.30;99.90;;;;;;4971685;28;20468;-74
2022/07/08 02:45:56;;;;;;;3.78;3.22;;;10.40;99.90;;;;;;4971025;28;20030;-74
2022/07/08 02:48:22;;;;;;;6.10;4.47;;;10.30;99.90;;;;;;4966557;28;20480;-75
2022/07/08 02:50:48;;;;;;;5.85;4.07;;;10.30;99.90;;;;;;4971379;28;20027;-75
2022/07/08 02:53:13;;;;;;;5.28;4.10;;;10.40;99.90;;;;;;4971488;28;20027;-74
2022/07/08 02:55:39;;;;;;;4.93;4.43;;;10.30;99.90;;;;;;4971543;28;20033;-74
2022/07/08 02:58:05;;;;;;;4.20;3.60;;;10.30;99.90;;;;;;4971386;28;20062;-74
2022/07/08 03:00:31;;;;;;;4.10;3.67;;;10.30;99.90;;;;;;4971645;28;20027;-74
2022/07/08 03:02:56;;;;;;;7.38;3.92;;;10.20;99.90;;;;;;4971716;28;20380;-74
2022/07/08 03:05:22;;;;;;;5.28;4.10;;;10.10;99.90;;;;;;4964069;28;20031;-74
2022/07/08 03:07:48;;;;;;;5.32;3.80;;;10.20;99.90;;;;;;4971890;28;20395;-74
2022/07/08 04:09:47;;;;;;;5.57;3.75;;;9.70;99.90;;;;;;5533805;23;20059;-74
2022/07/08 04:12:13;;;;;;;3.50;3.20;;;9.60;99.90;;;;;;4974538;28;20078;-74
2022/07/08 04:14:38;;;;;;;4.20;3.58;;;9.60;99.90;;;;;;4970048;28;20031;-74
2022/07/08 04:17:04;;;;;;;5.65;3.40;;;9.60;99.90;;;;;;4972211;28;20070;-74
2022/07/08 04:19:30;;;;;;;4.47;3.60;;;9.60;99.90;;;;;;4966296;28;20038;-74
2022/07/08 04:21:56;;;;;;;11.02;4.38;;;9.60;99.90;;;;;;4955178;28;20023;-74
2022/07/08 04:24:22;;;;;;;11.57;4.45;;;9.60;99.90;;;;;;4954745;28;20023;-74
2022/07/08 04:26:48;;;;;;;6.78;4.93;;;9.70;99.90;;;;;;4954546;28;20035;-74
2022/07/08 04:29:13;;;;;;;5.63;4.30;;;9.70;99.90;;;;;;4954795;28;20064;-74
2022/07/08 04:31:39;;;;;;;12.07;4.57;;;9.70;99.90;;;;;;4954885;28;20019;-74
2022/07/08 04:34:05;;;;;;;6.97;4.07;;;9.80;99.90;;;;;;4955108;28;20354;-73
2022/07/08 04:36:31;;;;;;;10.80;5.53;;;9.90;99.90;;;;;;4955129;28;20154;-73
2022/07/08 04:38:56;;;;;;;10.65;5.45;;;10.00;99.90;;;;;;4951357;28;20046;-73
2022/07/08 04:41:22;;;;;;;10.55;5.38;;;10.10;99.90;;;;;;4954634;28;20030;-74
2022/07/08 04:43:48;;;;;;;10.93;5.57;;;10.10;99.90;;;;;;4955134;28;20019;-74
2022/07/08 04:46:14;;;;;;;12.82;6.18;;;10.10;99.90;;;;;;4954600;29;20119;-74
2022/07/08 04:48:40;;;;;;;9.00;5.50;;;10.10;99.90;;;;;;4954783;28;20114;-74
2022/07/08 04:51:06;;;;;;;10.35;5.85;;;10.20;99.90;;;;;;4955105;28;20155;-74
2022/07/08 04:53:32;;;;;;;11.68;6.30;;;10.30;99.90;;;;;;4953861;28;20503;-74
2022/07/08 04:55:57;;;;;;;10.65;5.90;;;10.40;99.90;;;;;;4954616;28;20109;-74
2022/07/08 04:58:23;;;;;;;11.52;6.13;;;10.50;99.90;;;;;;4954702;28;20087;-74
2022/07/08 05:00:49;;;;;;;13.40;5.90;;;10.50;99.90;;;;;;4954441;28;20024;-74
2022/07/08 05:03:15;;;;;;;14.68;6.20;;;10.60;99.90;;;;;;4953983;28;20472;-74
2022/07/08 05:05:41;;;;;;;11.27;5.82;;;10.70;99.90;;;;;;4954803;28;20054;-74
2022/07/08 05:08:07;;;;;;;12.73;5.97;;;10.90;99.90;;;;;;4954201;28;20637;-74
2022/07/08 06:10:07;;;;;;;10.65;5.15;;;12.90;99.90;;;;;;5451777;23;20573;-73
2022/07/08 06:12:32;;;;;;;11.07;6.13;;;13.00;99.90;;;;;;4970297;28;20030;-74
2022/07/08 06:14:58;;;;;;;9.73;5.43;;;13.10;99.90;;;;;;4972157;28;20031;-74
2022/07/08 06:17:24;;;;;;;9.73;5.72;;;13.30;99.90;;;;;;4972530;28;20027;-75
2022/07/08 06:19:50;;;;;;;8.85;4.95;;;13.40;99.90;;;;;;4972097;28;20035;-75
2022/07/08 06:22:16;;;;;;;11.27;5.05;;;13.50;99.90;;;;;;4971333;28;20023;-75
2022/07/08 06:24:41;;;;;;;11.10;5.13;;;13.60;99.90;;;;;;4972321;28;20327;-74
2022/07/08 06:27:07;;;;;;;9.15;5.30;;;14.00;99.90;;;;;;4971691;28;20034;-75
2022/07/08 06:29:33;;;;;;;7.35;5.38;;;14.40;99.90;;;;;;4971485;28;20023;-75
2022/07/08 06:31:59;;;;;;;6.93;4.32;;;14.80;99.90;;;;;;4972341;28;20034;-75
2022/07/08 06:34:25;;;;;;;7.32;3.45;;;15.30;99.90;;;;;;4971654;28;20106;-75
2022/07/08 06:36:51;;;;;;;6.15;4.43;;;15.70;99.90;;;;;;4972030;28;20105;-75
2022/07/08 06:39:17;;;;;;;6.65;4.88;;;16.20;99.90;;;;;;4970766;28;20093;-75
2022/07/08 06:41:42;;;;;;;4.68;3.60;;;16.80;99.90;;;;;;4971840;28;20026;-75
2022/07/08 06:44:08;;;;;;;4.15;3.63;;;17.10;99.90;;;;;;4971069;28;20101;-75
2022/07/08 06:46:34;;;;;;;9.00;4.28;;;17.30;99.90;;;;;;4971786;28;20015;-75
2022/07/08 06:49:00;;;;;;;8.15;5.05;;;17.40;99.90;;;;;;4970911;28;20101;-75
2022/07/08 06:51:26;;;;;;;3.95;3.17;;;17.30;99.90;;;;;;4970435;28;20467;-76
2022/07/08 06:56:36;;;;;;;6.10;3.80;;;17.20;99.90;;;;;;4961961;28;20092;-78
2022/07/08 06:59:01;;;;;;;5.55;4.03;;;17.20;99.90;;;;;;4971248;28;20515;-75
2022/07/08 07:01:27;;;;;;;7.88;4.93;;;17.20;99.90;;;;;;4971081;28;20057;-76
2022/07/08 07:03:53;;;;;;;6.28;4.32;;;17.10;99.90;;;;;;4971331;28;20098;-76
2022/07/08 07:06:19;;;;;;;6.35;4.68;;;17.10;99.90;;;;;;4971255;28;20055;-76
2022/07/08 08:11:02;;;;;;;10.88;4.63;;;18.40;99.90;;;;;;5057693;23;20062;-77
2022/07/08 08:13:28;;;;;;;7.15;4.78;;;18.50;99.90;;;;;;4953608;28;20034;-77
2022/07/08 08:15:55;;;;;;;6.53;4.95;;;18.60;99.90;;;;;;4952997;28;20027;-77
2022/07/08 08:18:21;;;;;;;5.53;4.88;;;18.70;99.90;;;;;;4972350;28;20118;-77
2022/07/08 08:20:47;;;;;;;8.25;5.60;;;18.90;99.90;;;;;;4974088;28;20098;-77
2022/07/08 08:23:13;;;;;;;9.50;5.28;;;19.00;99.90;;;;;;4973531;28;20019;-77
2022/07/08 08:25:39;;;;;;;7.28;5.47;;;19.10;99.90;;;;;;4972907;28;20026;-77
2022/07/08 08:28:05;;;;;;;7.70;4.80;;;19.20;99.90;;;;;;4961350;28;20027;-77
2022/07/08 08:30:31;;;;;;;8.13;4.65;;;19.30;99.90;;;;;;4954186;28;20023;-77
2022/07/08 08:32:58;;;;;;;8.35;4.90;;;19.40;99.90;;;;;;4948232;28;20502;-77
2022/07/08 08:35:24;;;;;;;6.82;4.40;;;19.50;99.90;;;;;;4951912;28;20110;-77
2022/07/08 08:37:50;;;;;;;9.45;4.88;;;19.80;99.90;;;;;;4952946;28;20039;-77
2022/07/08 08:40:16;;;;;;;6.40;4.45;;;20.30;99.90;;;;;;4961144;28;20023;-77
2022/07/08 08:42:43;;;;;;;6.22;4.60;;;21.00;99.90;;;;;;4963253;28;20458;-77
2022/07/08 08:45:09;;;;;;;6.53;3.97;;;21.80;99.90;;;;;;4967888;28;20248;-77
2022/07/08 08:47:36;;;;;;;6.75;4.35;;;22.70;98.90;;;;;;4973775;28;20476;-77
2022/07/08 08:52:50;;;;;;;3.10;2.75;;;24.60;82.90;;;;;;4962149;28;20030;-78
2022/07/08 08:55:28;;;;;;;7.03;4.00;;;25.60;76.10;;;;;;4962421;28;20027;-78
2022/07/08 08:58:04;;;;;;;5.32;3.75;;;26.20;68.40;;;;;;4959603;28;20488;-78
2022/07/08 09:00:32;;;;;;;4.22;3.30;;;26.80;66.90;;;;;;4951019;28;20031;-78
2022/07/08 09:02:59;;;;;;;3.97;3.05;;;27.40;63.30;;;;;;4959836;28;20015;-78
2022/07/08 09:05:25;;;;;;;5.80;2.38;;;27.90;63.80;;;;;;4971957;28;20027;-78
2022/07/08 09:07:52;;;;;;;6.85;2.83;;;29.00;61.70;;;;;;4966915;28;20506;-78
2022/07/08 09:10:19;;;;;;;4.88;3.10;;;29.60;59.70;;;;;;4966908;28;20035;-78
2022/07/08 09:13:08;;;;;;;3.58;2.63;;;30.40;54.30;;;;;;4972127;28;20026;-78
2022/07/08 09:15:33;;;;;;;5.07;2.72;;;30.80;53.70;;;;;;4959696;28;20034;-78
2022/07/08 09:18:01;;;;;;;4.70;2.88;;;31.20;52.90;;;;;;4971926;28;20027;-78
2022/07/08 09:20:48;;;;;;;6.60;2.53;;;31.40;50.60;;;;;;4955886;28;20034;-78
2022/07/08 09:23:24;;;;;;;5.32;3.00;;;31.50;52.30;;;;;;4954184;28;20030;-78
2022/07/08 09:25:55;;;;;;;3.78;3.15;;;31.60;48.60;;;;;;4956476;28;20030;-78
2022/07/08 09:28:30;;;;;;;;;;;31.80;49.40;;;;;;4964105;28;20031;-78
2022/07/08 09:30:58;;;;;;;3.15;2.58;;;32.00;50.00;;;;;;4954543;28;20291;-79
2022/07/08 09:33:25;;;;;;;3.47;2.13;;;33.00;47.10;;;;;;4970226;28;20026;-79
2022/07/08 09:35:51;;;;;;;7.32;2.92;;;33.60;45.50;;;;;;4971019;28;20054;-79
2022/07/08 09:38:21;;;;;;;4.20;2.50;;;33.10;45.50;;;;;;4952254;28;20028;-78
2022/07/08 09:40:58;;;;;;;4.00;2.70;;;33.00;46.20;;;;;;4949514;28;20026;-79
2022/07/08 09:43:25;;;;;;;5.80;2.70;;;33.00;44.40;;;;;;4949182;28;20391;-78
2022/07/08 09:45:51;;;;;;;3.60;2.40;;;32.80;46.60;;;;;;4946652;28;20027;-78
2022/07/08 09:48:17;;;;;;;4.43;2.13;;;33.90;46.20;;;;;;4952933;28;20035;-79
2022/07/08 09:50:47;;;;;;;3.25;2.35;;;34.50;45.00;;;;;;4956819;28;20026;-79
2022/07/08 09:53:17;;;;;;;3.65;2.33;;;34.80;44.80;;;;;;4952447;28;20050;-79
2022/07/08 09:55:52;;;;;;;4.60;2.40;;;35.30;41.60;;;;;;4954867;28;20114;-78
2022/07/08 09:58:20;;;;;;;9.57;2.47;;;35.30;42.40;;;;;;4953977;28;20035;-78
2022/07/08 10:00:48;;;;;;;3.70;2.25;;;35.30;40.70;;;;;;4955226;28;20548;-78
2022/07/08 10:03:14;;;;;;;3.45;2.47;;;35.30;43.20;;;;;;4955349;28;20098;-78
2022/07/08 10:05:42;;;;;;;2.80;2.13;;;35.30;43.70;;;;;;4950565;28;20138;-78
2022/07/08 10:08:09;;;;;;;4.50;2.42;;;35.70;41.70;;;;;;4946429;28;20026;-78
2022/07/08 10:10:37;;;;;;;4.30;2.50;;;36.60;40.10;;;;;;4945679;28;20448;-78
2022/07/08 10:13:04;;;;;;;4.05;2.17;;;35.50;39.80;;;;;;4949177;28;20024;-78
2022/07/08 10:15:32;;;;;;;5.00;2.53;;;35.50;40.20;;;;;;4948884;28;20110;-78
2022/07/08 10:18:03;;;;;;;7.43;2.78;;;35.80;41.60;;;;;;4955118;28;20059;-77
2022/07/08 10:20:31;;;;;;;3.78;2.28;;;36.20;42.00;;;;;;4953201;28;20028;-78
2022/07/08 10:23:01;;;;;;;4.88;2.45;;;36.70;40.20;;;;;;4950986;28;20023;-78
2022/07/08 10:25:29;;;;;;;3.47;2.40;;;36.70;42.50;;;;;;4957742;28;20024;-78
2022/07/08 10:28:07;;;;;;;5.32;2.85;;;37.10;39.10;;;;;;4956658;28;20463;-78
2022/07/08 10:30:48;;;;;;;4.13;2.65;;;36.60;38.50;;;;;;4952485;28;20030;-77
2022/07/08 10:33:25;;;;;;;5.25;3.30;;;36.80;38.30;;;;;;4949216;28;20122;-78
2022/07/08 10:36:08;;;;;;;3.80;2.28;;;37.00;39.70;;;;;;4953575;28;20114;-78
2022/07/08 10:38:39;;;;;;;3.88;2.63;;;37.80;37.50;;;;;;4956089;28;20123;-78
2022/07/08 10:41:08;;;;;;;3.67;2.65;;;38.10;39.30;;;;;;4954760;28;20019;-78
2022/07/08 10:43:35;;;;;;;5.65;3.10;;;38.30;38.00;;;;;;4955921;28;20026;-78
2022/07/08 10:46:12;;;;;;;4.68;2.70;;;38.20;36.80;;;;;;4957244;28;20019;-79
2022/07/08 10:48:41;;;;;;;6.35;2.83;;;38.50;37.60;;;;;;4948742;28;20085;-79
2022/07/08 10:51:19;;;;;;;4.40;2.65;;;38.90;36.80;;;;;;4957160;28;20468;-78
2022/07/08 10:54:02;;;;;;;4.20;2.20;;;38.40;37.30;;;;;;4952319;28;20027;-78
2022/07/08 10:57:01;;;;;;;2.88;2.50;;;38.60;38.30;;;;;;4957007;28;20047;-79
2022/07/08 10:59:29;;;;;;;6.30;3.28;;;38.40;36.60;;;;;;4950844;28;20503;-78
2022/07/08 11:02:13;;;;;;;6.72;3.15;;;38.50;36.30;;;;;;4954655;28;20421;-78
2022/07/08 11:04:42;;;;;;;5.53;3.00;;;38.90;36.40;;;;;;4957794;28;20098;-78
2022/07/08 11:07:37;;;;;;;6.40;3.80;;;39.20;36.30;;;;;;4954135;28;20523;-78
2022/07/08 11:10:13;;;;;;;4.47;2.60;;;39.50;33.40;;;;;;4955025;28;20054;-78
2022/07/08 11:12:41;;;;;;;4.70;3.15;;;40.00;36.60;;;;;;4957024;28;20073;-78
2022/07/08 11:15:10;;;;;;;7.28;3.20;;;39.70;34.80;;;;;;4957649;28;20550;-78
2022/07/08 11:17:37;;;;;;;5.90;3.22;;;40.10;36.10;;;;;;4951242;28;20486;-79
2022/07/08 11:20:11;;;;;;;3.28;2.92;;;39.70;33.90;;;;;;4955547;28;20085;-78
2022/07/08 11:22:38;;;;;;;5.20;2.70;;;39.30;34.80;;;;;;4955513;28;20142;-79
2022/07/08 11:25:06;;;;;;;5.82;2.88;;;39.30;36.00;;;;;;4957624;28;20031;-78
2022/07/08 11:27:33;;;;;;;5.72;2.75;;;39.90;35.00;;;;;;4956616;28;20027;-79
2022/07/08 11:30:00;;;;;;;5.78;2.95;;;39.60;34.30;;;;;;4955865;28;20518;-79
2022/07/08 11:32:27;;;;;;;5.00;3.35;;;39.70;35.80;;;;;;4956763;28;20050;-79
2022/07/08 11:34:54;;;;;;;5.82;3.08;;;40.20;34.60;;;;;;4957732;28;20375;-79
2022/07/08 11:37:20;;;;;;;4.03;3.15;;;40.80;34.50;;;;;;4957374;28;20063;-79
2022/07/08 11:39:47;;;;;;;4.85;3.40;;;40.20;34.90;;;;;;4954442;28;20034;-79
2022/07/08 11:42:14;;;;;;;4.93;2.72;;;39.80;36.00;;;;;;4955253;28;20110;-79
2022/07/08 11:44:41;;;;;;;4.32;2.90;;;40.10;34.40;;;;;;4953962;28;20099;-79
2022/07/08 11:47:10;;;;;;;5.35;3.75;;;40.60;35.80;;;;;;4957393;28;20086;-79
2022/07/08 11:49:42;;;;;;;3.83;2.70;;;40.00;32.30;;;;;;4954822;28;20026;-78
2022/07/08 11:52:08;;;;;;;4.88;4.25;;;40.10;35.40;;;;;;4955467;28;20015;-79
2022/07/08 11:54:34;;;;;;;5.75;3.75;;;40.00;32.90;;;;;;4955879;28;20689;-79
2022/07/08 11:57:01;;;;;;;4.03;3.13;;;40.10;34.00;;;;;;4957035;28;20034;-79
2022/07/08 11:59:33;;;;;;;4.28;2.30;;;40.80;34.20;;;;;;4953960;28;20038;-79
2022/07/08 12:02:00;;;;;;;4.53;2.92;;;41.20;34.00;;;;;;4949296;28;20047;-79
2022/07/08 12:04:26;;;;;;;4.80;3.30;;;40.70;34.10;;;;;;4954674;28;20025;-79
2022/07/08 12:06:55;;;;;;;4.43;3.05;;;41.20;34.30;;;;;;4952251;28;20028;-78
2022/07/08 12:09:23;;;;;;;5.20;2.58;;;41.10;33.80;;;;;;4947035;28;20459;-77
2022/07/08 12:11:55;;;;;;;4.40;3.03;;;41.80;34.40;;;;;;4955771;28;20027;-77
2022/07/08 12:14:21;;;;;;;7.70;3.70;;;41.60;32.30;;;;;;4953916;28;20027;-77
2022/07/08 12:16:53;;;;;;;5.82;3.20;;;41.50;32.70;;;;;;4970059;28;20011;-77
2022/07/08 12:19:39;;;;;;;6.05;3.58;;;41.40;32.40;;;;;;4971933;28;20026;-77
2022/07/08 12:22:07;;;;;;;5.35;2.92;;;41.70;32.20;;;;;;4966445;28;20498;-77
2022/07/08 12:24:36;;;;;;;5.05;3.00;;;41.60;32.00;;;;;;4970259;28;20113;-78
2022/07/08 12:27:05;;;;;;;9.93;3.40;;;40.90;32.10;;;;;;4973990;28;21292;-77
2022/07/08 12:29:36;;;;;;;3.72;2.75;;;41.10;33.60;;;;;;4973921;28;20483;-78
2022/07/08 12:32:03;;;;;;;3.20;2.40;;;41.10;33.20;;;;;;4972075;28;20019;-78
2022/07/08 12:34:29;;;;;;;2.70;2.13;;;41.10;36.30;;;;;;4974125;28;20015;-78
2022/07/08 12:37:13;;;;;;;5.03;2.95;;;41.50;34.60;;;;;;4973892;28;20353;-78
2022/07/08 12:39:39;;;;;;;7.22;3.05;;;40.90;32.20;;;;;;4967521;28;20037;-78
2022/07/08 12:42:05;;;;;;;3.92;2.58;;;39.90;34.70;;;;;;4965481;28;20019;-78
2022/07/08 12:44:34;;;;;;;7.35;3.40;;;39.90;34.20;;;;;;4972916;28;20078;-79
2022/07/08 12:47:01;;;;;;;4.38;3.17;;;39.40;34.50;;;;;;4961732;28;20110;-79
2022/07/08 12:49:29;;;;;;;5.20;3.00;;;39.50;34.80;;;;;;4972413;28;20034;-78
2022/07/08 12:51:56;;;;;;;5.65;3.10;;;39.80;34.50;;;;;;4965643;28;20106;-79
2022/07/08 12:54:23;;;;;;;4.28;3.83;;;39.90;34.60;;;;;;4961995;28;20023;-79
2022/07/08 12:56:49;;;;;;;4.53;2.67;;;38.50;35.10;;;;;;4962963;28;20360;-78
2022/07/08 12:59:15;;;;;;;5.10;4.03;;;40.20;35.90;;;;;;4966927;28;20035;-79
2022/07/08 13:01:41;;;;;;;5.80;3.13;;;40.10;33.50;;;;;;4971445;28;20027;-77
2022/07/08 13:04:07;;;;;;;4.75;2.90;;;39.80;34.30;;;;;;4973215;28;20022;-78
2022/07/08 13:06:33;;;;;;;4.50;3.15;;;40.60;34.30;;;;;;4968825;28;20023;-78
2022/07/08 13:08:59;;;;;;;4.38;3.08;;;41.30;33.60;;;;;;4958444;28;20022;-78
2022/07/08 13:11:25;;;;;;;5.45;3.15;;;40.80;32.60;;;;;;4969060;28;20490;-79
2022/07/08 13:13:51;;;;;;;6.75;2.85;;;40.70;33.70;;;;;;4967643;28;20023;-79
2022/07/08 13:16:17;;;;;;;5.18;2.70;;;41.70;34.50;;;;;;4971915;28;20018;-79
2022/07/08 13:18:43;;;;;;;5.65;3.10;;;42.40;32.80;;;;;;4969436;28;20031;-80
2022/07/08 13:21:08;;;;;;;3.92;3.20;;;42.90;30.60;;;;;;4969231;28;20019;-80
2022/07/08 13:23:34;;;;;;;6.93;3.00;;;41.30;31.00;;;;;;4972656;28;20026;-79
2022/07/08 13:26:00;;;;;;;6.07;3.20;;;41.70;32.80;;;;;;4972698;28;20483;-79
2022/07/08 13:28:26;;;;;;;4.97;3.00;;;42.10;31.90;;;;;;4967663;28;20027;-79
2022/07/08 13:30:52;;;;;;;5.32;3.00;;;42.20;32.40;;;;;;4969985;28;20022;-79
2022/07/08 13:33:18;;;;;;;3.60;2.90;;;42.40;32.00;;;;;;4968721;28;20015;-79
2022/07/08 13:35:44;;;;;;;3.40;2.88;;;42.50;30.70;;;;;;4966410;28;20105;-79
2022/07/08 13:38:09;;;;;;;3.85;3.05;;;41.80;31.10;;;;;;4955236;28;20055;-79
2022/07/08 13:40:35;;;;;;;3.65;2.40;;;42.20;31.60;;;;;;4956623;28;20034;-79
2022/07/08 13:43:01;;;;;;;6.28;3.15;;;42.80;30.80;;;;;;4967470;28;20019;-79
2022/07/08 13:45:27;;;;;;;4.47;2.88;;;43.10;30.20;;;;;;4972749;28;20027;-79
2022/07/08 13:47:52;;;;;;;4.95;2.85;;;42.80;31.00;;;;;;4972432;28;20030;-79
2022/07/08 13:50:19;;;;;;;4.43;2.40;;;43.30;31.30;;;;;;4953076;28;20027;-79
2022/07/08 13:52:45;;;;;;;7.05;2.83;;;43.40;31.50;;;;;;4970248;28;20019;-79
2022/07/08 13:55:10;;;;;;;4.35;2.40;;;43.40;30.20;;;;;;4972200;28;20086;-79
2022/07/08 13:57:36;;;;;;;5.90;2.63;;;43.20;29.80;;;;;;4966210;28;20476;-79
2022/07/08 14:00:05;;;;;;;4.15;2.78;;;42.30;30.60;;;;;;4959558;28;20042;-79
2022/07/08 14:02:32;;;;;;;3.42;2.50;;;41.60;31.00;;;;;;4970160;28;20011;-79
2022/07/08 14:04:57;;;;;;;4.30;2.95;;;41.80;31.10;;;;;;4972162;28;20042;-79
2022/07/08 14:07:24;;;;;;;3.92;2.30;;;42.10;30.20;;;;;;4962441;28;20031;-79
2022/07/08 14:09:50;;;;;;;4.00;2.30;;;41.90;31.60;;;;;;4970438;28;20048;-79
2022/07/08 14:12:18;;;;;;;4.90;2.40;;;41.80;31.00;;;;;;4971052;28;20023;-80
2022/07/08 14:14:44;;;;;;;3.20;2.55;;;42.40;30.40;;;;;;4972227;28;20015;-79
2022/07/08 14:17:10;;;;;;;5.70;2.40;;;41.70;31.00;;;;;;4970660;28;20475;-79
2022/07/08 14:19:36;;;;;;;3.95;1.83;;;41.70;32.80;;;;;;4965175;28;20042;-79
2022/07/08 14:22:02;;;;;;;3.92;2.40;;;42.00;30.60;;;;;;4972325;28;20015;-79
2022/07/08 14:24:27;;;;;;;3.33;2.03;;;42.30;30.50;;;;;;4971739;28;20114;-79
2022/07/08 14:26:53;;;;;;;2.13;1.90;;;42.80;31.60;;;;;;4971761;28;20019;-79
2022/07/08 14:29:19;;;;;;;3.17;1.92;;;43.00;31.20;;;;;;4972211;28;20027;-80
2022/07/08 14:31:45;;;;;;;3.10;2.08;;;43.40;30.50;;;;;;4962829;28;20011;-80
2022/07/08 14:34:11;;;;;;;2.35;2.05;;;43.00;29.40;;;;;;4971676;28;20035;-80
2022/07/08 14:36:36;;;;;;;4.13;2.40;;;42.60;30.80;;;;;;4966793;28;20026;-79
2022/07/08 14:39:03;;;;;;;3.38;1.75;;;42.30;30.90;;;;;;4949917;28;20093;-80
2022/07/08 14:41:28;;;;;;;2.45;1.83;;;42.30;31.60;;;;;;4947218;28;20031;-79
2022/07/08 14:43:54;;;;;;;3.33;2.15;;;42.10;31.30;;;;;;4942897;28;20798;-81
2022/07/08 14:46:20;;;;;;;3.67;1.98;;;41.80;32.40;;;;;;4946983;28;20043;-81
2022/07/08 14:48:46;;;;;;;2.90;2.13;;;41.30;31.10;;;;;;4945139;28;20563;-79
2022/07/08 14:51:12;;;;;;;4.97;1.80;;;40.30;32.20;;;;;;4944664;28;20111;-80
2022/07/08 14:53:37;;;;;;;3.05;1.60;;;40.60;31.60;;;;;;4945460;28;20607;-80
2022/07/08 14:56:03;;;;;;;1.45;1.35;;;40.20;31.60;;;;;;4943330;28;20020;-79
2022/07/08 14:58:30;;;;;;;1.50;1.40;;;40.10;33.10;;;;;;4943537;28;20156;-80
2022/07/08 15:00:55;;;;;;;2.53;1.38;;;40.00;33.10;;;;;;4945606;28;20016;-79
2022/07/08 15:03:22;;;;;;;2.47;1.48;;;40.10;33.60;;;;;;4943199;28;20035;-78
2022/07/08 15:05:48;;;;;;;2.70;1.65;;;40.70;31.90;;;;;;4942899;28;20023;-82
2022/07/08 15:08:15;;;;;;;2.10;1.45;;;38.80;32.90;;;;;;4950691;28;20022;-78
2022/07/08 16:09:22;;;;;;;3.70;2.40;;;29.80;50.70;;;;;;5913754;23;20189;-78
2022/07/08 16:11:48;;;;;;;4.88;2.58;;;29.20;51.70;;;;;;4972100;28;20114;-79
2022/07/08 16:14:13;;;;;;;3.50;2.05;;;28.60;52.50;;;;;;4973125;28;20046;-78
2022/07/08 16:16:39;;;;;;;2.50;2.00;;;28.30;55.10;;;;;;4974294;28;20027;-79
2022/07/08 16:19:06;;;;;;;2.33;1.77;;;28.00;55.50;;;;;;4974210;28;20045;-78
2022/07/08 16:21:31;;;;;;;3.88;2.00;;;27.60;57.90;;;;;;4974119;28;20018;-78
2022/07/08 16:23:57;;;;;;;2.60;1.83;;;27.50;60.60;;;;;;4974210;28;20029;-78
2022/07/08 16:26:24;;;;;;;2.35;1.52;;;27.30;62.20;;;;;;4973572;28;20087;-78
2022/07/08 16:28:50;;;;;;;1.77;1.50;;;27.40;63.30;;;;;;4973821;28;20038;-78
2022/07/08 16:31:16;;;;;;;2.38;1.65;;;27.30;64.80;;;;;;4973851;28;20023;-78
2022/07/08 16:33:42;;;;;;;5.05;2.83;;;27.40;68.80;;;;;;4989042;28;20464;-78
2022/07/08 16:36:09;;;;;;;3.08;1.80;;;27.50;63.80;;;;;;4974144;28;20031;-79
2022/07/08 16:38:36;;;;;;;2.60;1.45;;;27.20;62.00;;;;;;4972481;28;20488;-78
2022/07/08 16:41:02;;;;;;;2.28;1.60;;;26.80;65.40;;;;;;4970491;28;20522;-78
2022/07/08 16:43:28;;;;;;;1.45;1.35;;;26.60;67.30;;;;;;4973758;28;20023;-79
2022/07/08 16:45:59;;;;;;;2.00;1.60;;;26.50;68.00;;;;;;4973780;28;20033;-78
2022/07/08 16:48:25;;;;;;;1.50;1.40;;;26.60;73.50;;;;;;4974344;28;20687;-79
2022/07/08 16:50:52;;;;;;;3.75;1.63;;;26.50;68.10;;;;;;4973578;28;20106;-79
2022/07/08 16:53:18;;;;;;;1.50;1.40;;;26.60;70.10;;;;;;4973832;28;20023;-78
2022/07/08 16:55:44;;;;;;;1.65;1.52;;;26.40;69.20;;;;;;4973718;28;20026;-78
2022/07/08 16:58:09;;;;;;;1.65;1.30;;;26.30;67.90;;;;;;4973638;28;20023;-80
2022/07/08 17:00:36;;;;;;;1.65;1.20;;;26.20;69.90;;;;;;4973462;28;20384;-79
2022/07/08 17:03:02;;;;;;;1.27;0.88;;;26.10;71.50;;;;;;4973955;28;20026;-79
2022/07/08 17:05:28;;;;;;;1.95;1.40;;;26.10;70.30;;;;;;4972691;28;20030;-79
2022/07/08 17:07:54;;;;;;;3.10;1.23;;;26.00;73.30;;;;;;4962100;28;20035;-79
2022/07/08 18:09:53;;;;;;;1.55;1.00;;;22.40;99.90;;;;;;5710318;23;20050;-76
2022/07/08 18:12:19;;;;;;;1.42;0.80;;;22.30;99.90;;;;;;4966273;28;20023;-76
2022/07/08 18:14:44;;;;;;;2.85;1.00;;;22.20;99.90;;;;;;4972695;28;20022;-75
2022/07/08 18:17:10;;;;;;;2.65;1.23;;;22.30;99.90;;;;;;4971986;28;20038;-76
2022/07/08 18:19:36;;;;;;;2.17;1.00;;;22.20;99.90;;;;;;4971641;28;20066;-75
2022/07/08 18:22:02;;;;;;;0.77;0.73;;;22.30;99.90;;;;;;4972186;28;20383;-76
2022/07/08 18:24:28;;;;;;;2.35;1.35;;;22.30;99.90;;;;;;4972241;28;20081;-75
2022/07/08 18:26:53;;;;;;;1.27;0.80;;;22.30;99.90;;;;;;4970709;28;20030;-76
2022/07/08 18:29:20;;;;;;;1.60;0.80;;;22.30;99.90;;;;;;4961720;28;20024;-75
2022/07/08 18:31:46;;;;;;;1.40;1.30;;;22.30;99.90;;;;;;4965083;28;20015;-76
2022/07/08 18:34:12;;;;;;;1.90;0.90;;;22.50;99.90;;;;;;4959853;28;20069;-78
2022/07/08 18:36:38;;;;;;;1.65;0.90;;;22.60;99.90;;;;;;4949555;28;20030;-77
2022/07/08 18:39:03;;;;;;;1.45;1.35;;;22.60;99.90;;;;;;4951383;28;20035;-77
2022/07/08 18:41:29;;;;;;;2.17;0.88;;;22.70;99.90;;;;;;4960899;28;20465;-77
2022/07/08 18:43:55;;;;;;;2.08;0.90;;;22.80;99.90;;;;;;4963022;28;20022;-78
2022/07/08 18:46:21;;;;;;;1.65;0.75;;;22.80;99.90;;;;;;4967004;28;20027;-77
2022/07/08 18:48:46;;;;;;;1.85;1.33;;;22.80;99.90;;;;;;4937305;28;20058;-75
2022/07/08 18:51:13;;;;;;;2.25;0.80;;;22.70;99.90;;;;;;4959472;28;20037;-76
2022/07/08 18:53:40;;;;;;;1.67;0.90;;;22.70;99.90;;;;;;4963603;28;20526;-76
2022/07/08 18:56:08;;;;;;;2.95;0.90;;;22.70;99.90;;;;;;4955531;28;20055;-77
2022/07/08 18:58:38;;;;;;;1.33;0.98;;;22.70;99.90;;;;;;4961913;28;20030;-77
2022/07/08 19:01:04;;;;;;;3.08;1.15;;;22.80;99.90;;;;;;4958154;28;20054;-77
2022/07/08 19:03:30;;;;;;;1.50;0.90;;;22.60;99.90;;;;;;4956776;28;20078;-76
2022/07/08 19:05:57;;;;;;;0.93;0.70;;;22.50;99.90;;;;;;4953040;28;20027;-75
2022/07/08 19:08:24;;;;;;;2.00;0.98;;;22.40;99.90;;;;;;4967824;28;20125;-76
2022/07/08 20:10:23;;;;;;;6.05;1.15;;;19.30;99.90;;;;;;5558506;23;20055;-77
2022/07/08 20:12:48;;;;;;;1.67;1.20;;;19.20;99.90;;;;;;4967153;28;20027;-76
2022/07/08 20:15:14;;;;;;;3.15;1.58;;;19.10;99.90;;;;;;4958193;28;20035;-78
2022/07/08 20:17:40;;;;;;;2.60;1.23;;;19.00;99.90;;;;;;4955916;28;20027;-77
2022/07/08 20:20:06;;;;;;;6.85;1.30;;;18.80;99.90;;;;;;4955927;28;20439;-78
2022/07/08 20:22:32;;;;;;;1.65;1.05;;;18.70;99.90;;;;;;4951881;28;20050;-77
2022/07/08 20:24:58;;;;;;;3.45;1.30;;;18.60;99.90;;;;;;4965325;28;20065;-77
2022/07/08 20:27:24;;;;;;;1.45;1.17;;;18.50;99.90;;;;;;4970750;28;20034;-78
2022/07/08 20:29:50;;;;;;;2.55;1.25;;;18.40;99.90;;;;;;4970507;28;20027;-78
2022/07/08 20:32:16;;;;;;;3.45;1.55;;;18.40;99.90;;;;;;4970667;28;20030;-78
2022/07/08 20:34:42;;;;;;;5.50;1.80;;;18.40;99.90;;;;;;4958672;28;20023;-78
2022/07/08 20:37:08;;;;;;;2.30;1.33;;;18.30;99.90;;;;;;4958582;28;20073;-78
2022/07/08 20:39:34;;;;;;;5.93;1.63;;;18.20;99.90;;;;;;4956279;28;20597;-78
2022/07/08 20:44:44;;;;;;;1.60;1.10;;;18.10;99.90;;;;;;4958381;28;20387;-78
2022/07/08 20:47:10;;;;;;;2.70;1.35;;;18.00;99.90;;;;;;4970009;28;20022;-78
2022/07/08 20:49:36;;;;;;;3.28;1.83;;;18.00;99.90;;;;;;4964935;28;20023;-78
2022/07/08 20:52:02;;;;;;;2.97;1.40;;;17.90;99.90;;;;;;4970039;28;20422;-79
2022/07/08 20:54:27;;;;;;;4.15;1.77;;;17.70;99.90;;;;;;4969801;28;20030;-79
2022/07/08 20:56:54;;;;;;;2.17;1.60;;;17.70;99.90;;;;;;4969700;28;20377;-78